createdAt,value
2022-10-12T00:01:17.852Z,101275.00
2022-10-12T00:03:46.400Z,101258.00
2022-10-12T00:06:18.697Z,101269.00
2022-10-12T00:08:47.845Z,101267.00
2022-10-12T00:11:18.364Z,101275.00
2022-10-12T00:13:46.933Z,101266.00
2022-10-12T00:16:18.113Z,101263.00
2022-10-12T00:18:46.857Z,101275.00
2022-10-12T00:21:18.126Z,101269.00
2022-10-12T00:23:47.847Z,101264.00
2022-10-12T00:26:19.822Z,101263.00
2022-10-12T00:28:49.467Z,101263.00
2022-10-12T00:31:19.978Z,101269.00
2022-10-12T00:33:49.736Z,101266.00
2022-10-12T00:36:21.730Z,101272.00
2022-10-12T00:38:51.411Z,101268.00
2022-10-12T00:41:23.294Z,101267.00
2022-10-12T00:43:56.986Z,101263.00
2022-10-12T00:46:31.776Z,101265.00
2022-10-12T00:49:10.434Z,101269.00
2022-10-12T00:51:42.977Z,101270.00
2022-10-12T00:54:15.202Z,101265.00
2022-10-12T00:56:47.181Z,101269.00
2022-10-12T00:59:20.842Z,101274.00
2022-10-12T01:01:49.667Z,101257.00
2022-10-12T01:04:18.370Z,101260.00
2022-10-12T01:06:48.268Z,101254.00
2022-10-12T01:09:16.944Z,101265.00
2022-10-12T01:11:45.463Z,101262.00
2022-10-12T01:14:14.246Z,101253.00
2022-10-12T01:16:49.004Z,101264.00
2022-10-12T01:19:37.572Z,101259.00
2022-10-12T01:22:10.494Z,101250.00
2022-10-12T01:24:50.917Z,101256.00
2022-10-12T01:27:37.502Z,101254.00
2022-10-12T01:30:17.674Z,101253.00
2022-10-12T01:33:06.895Z,101248.00
2022-10-12T01:35:40.867Z,101248.00
2022-10-12T01:38:19.646Z,101259.00
2022-10-12T01:40:56.930Z,101255.00
2022-10-12T01:43:33.655Z,101240.00
2022-10-12T01:46:08.487Z,101250.00
2022-10-12T01:48:37.071Z,101251.00
2022-10-12T01:51:05.918Z,101249.00
2022-10-12T01:53:42.387Z,101245.00
2022-10-12T01:56:19.366Z,101242.00
2022-10-12T01:58:58.232Z,101242.00
2022-10-12T02:01:36.890Z,101246.00
2022-10-12T02:04:13.077Z,101243.00
2022-10-12T02:06:48.620Z,101239.00
2022-10-12T02:09:22.945Z,101233.00
2022-10-12T02:11:53.568Z,101235.00
2022-10-12T02:14:25.098Z,101232.00
2022-10-12T02:16:57.581Z,101239.00
2022-10-12T02:19:28.309Z,101237.00
2022-10-12T02:22:00.813Z,101241.00
2022-10-12T02:24:32.956Z,101238.00
2022-10-12T02:27:06.072Z,101244.00
2022-10-12T02:29:40.045Z,101249.00
2022-10-12T02:32:18.496Z,101248.00
2022-10-12T02:34:52.357Z,101246.00
2022-10-12T02:37:32.009Z,101243.00
2022-10-12T02:40:11.604Z,101245.00
2022-10-12T02:43:08.897Z,101239.00
2022-10-12T02:45:36.114Z,101244.00
2022-10-12T02:48:07.336Z,101241.00
2022-10-12T02:50:37.130Z,101244.00
2022-10-12T02:53:06.999Z,101231.00
2022-10-12T02:55:39.801Z,101236.00
2022-10-12T02:58:08.404Z,101231.00
2022-10-12T03:00:37.065Z,101235.00
2022-10-12T03:03:07.176Z,101231.00
2022-10-12T03:05:35.711Z,101231.00
2022-10-12T03:08:04.701Z,101229.00
2022-10-12T03:10:33.193Z,101229.00
2022-10-12T03:13:01.766Z,101221.00
2022-10-12T03:15:30.271Z,101232.00
2022-10-12T03:17:58.787Z,101224.00
2022-10-12T03:20:31.073Z,101222.00
2022-10-12T03:22:59.708Z,101233.00
2022-10-12T03:25:28.261Z,101238.00
2022-10-12T03:27:56.766Z,101236.00
2022-10-12T03:30:25.291Z,101234.00
2022-10-12T03:32:53.924Z,101236.00
2022-10-12T03:35:23.662Z,101237.00
2022-10-12T03:37:53.615Z,101225.00
2022-10-12T03:40:22.151Z,101225.00
2022-10-12T03:42:50.670Z,101223.00
2022-10-12T03:45:19.246Z,101225.00
2022-10-12T03:47:48.155Z,101217.00
2022-10-12T03:50:16.702Z,101215.00
2022-10-12T03:52:45.438Z,101221.00
2022-10-12T03:55:15.583Z,101220.00
2022-10-12T03:57:44.641Z,101221.00
2022-10-12T04:00:14.553Z,101219.00
2022-10-12T04:02:43.309Z,101221.00
2022-10-12T04:05:11.825Z,101213.00
2022-10-12T04:07:40.668Z,101211.00
2022-10-12T04:10:10.182Z,101216.00
2022-10-12T04:12:40.043Z,101215.00
2022-10-12T04:15:10.081Z,101212.00
2022-10-12T04:17:39.291Z,101218.00
2022-10-12T04:20:09.083Z,101216.00
2022-10-12T04:22:37.649Z,101222.00
2022-10-12T04:25:06.822Z,101224.00
2022-10-12T04:27:35.503Z,101223.00
2022-10-12T04:30:06.265Z,101228.00
2022-10-12T04:32:34.808Z,101229.00
2022-10-12T04:35:03.426Z,101224.00
2022-10-12T04:37:32.048Z,101213.00
2022-10-12T04:40:00.665Z,101219.00
2022-10-12T04:42:29.234Z,101209.00
2022-10-12T04:44:57.848Z,101212.00
2022-10-12T04:47:28.214Z,101219.00
2022-10-12T04:49:56.842Z,101214.00
2022-10-12T04:52:25.437Z,101222.00
2022-10-12T04:54:53.977Z,101216.00
2022-10-12T04:57:22.582Z,101220.00
2022-10-12T04:59:51.571Z,101219.00
2022-10-12T05:02:20.055Z,101221.00
2022-10-12T05:04:50.031Z,101220.00
2022-10-12T05:07:18.591Z,101211.00
2022-10-12T05:09:47.082Z,101220.00
2022-10-12T05:12:15.545Z,101219.00
2022-10-12T05:14:44.277Z,101217.00
2022-10-12T05:17:12.784Z,101229.00
2022-10-12T05:19:41.321Z,101225.00
2022-10-12T05:22:11.353Z,101222.00
2022-10-12T05:24:39.867Z,101226.00
2022-10-12T05:27:11.880Z,101219.00
2022-10-12T05:29:40.420Z,101221.00
2022-10-12T05:32:08.929Z,101216.00
2022-10-12T05:34:38.764Z,101221.00
2022-10-12T05:37:07.251Z,101227.00
2022-10-12T05:39:37.524Z,101219.00
2022-10-12T05:42:06.392Z,101212.00
2022-10-12T05:44:34.959Z,101216.00
2022-10-12T05:47:03.482Z,101217.00
2022-10-12T05:49:32.075Z,101216.00
2022-10-12T05:52:00.550Z,101220.00
2022-10-12T05:54:29.107Z,101215.00
2022-10-12T05:56:59.073Z,101221.00
2022-10-12T05:59:27.669Z,101224.00
2022-10-12T06:01:56.247Z,101220.00
2022-10-12T06:04:24.995Z,101220.00
2022-10-12T06:06:53.679Z,101224.00
2022-10-12T06:09:22.402Z,101235.00
2022-10-12T06:11:50.973Z,101228.00
2022-10-12T06:14:20.802Z,101236.00
2022-10-12T06:16:53.729Z,101231.00
2022-10-12T06:19:23.173Z,101233.00
2022-10-12T06:21:51.695Z,101235.00
2022-10-12T06:24:20.253Z,101241.00
2022-10-12T06:26:48.873Z,101245.00
2022-10-12T06:29:17.632Z,101238.00
2022-10-12T06:31:51.468Z,101245.00
2022-10-12T06:34:20.588Z,101243.00
2022-10-12T06:36:49.656Z,101246.00
2022-10-12T06:39:18.232Z,101251.00
2022-10-12T06:41:46.865Z,101265.00
2022-10-12T06:44:15.396Z,101263.00
2022-10-12T06:46:43.991Z,101249.00
2022-10-12T06:49:14.234Z,101262.00
2022-10-12T06:51:43.041Z,101264.00
2022-10-12T06:54:12.202Z,101266.00
2022-10-12T06:56:47.492Z,101260.00
2022-10-12T06:59:16.605Z,101254.00
2022-10-12T07:01:51.216Z,101258.00
2022-10-12T07:04:24.585Z,101248.00
2022-10-12T07:07:12.675Z,101254.00
2022-10-12T07:09:58.804Z,101252.00
2022-10-12T07:12:28.680Z,101262.00
2022-10-12T07:15:00.438Z,101261.00
2022-10-12T07:17:34.578Z,101267.00
2022-10-12T07:20:07.970Z,101252.00
2022-10-12T07:22:37.041Z,101251.00
2022-10-12T07:25:09.347Z,101255.00
2022-10-12T07:27:38.943Z,101251.00
2022-10-12T07:30:13.693Z,101248.00
2022-10-12T07:32:42.637Z,101251.00
2022-10-12T07:35:13.328Z,101253.00
2022-10-12T07:37:53.670Z,101258.00
2022-10-12T07:40:26.530Z,101255.00
2022-10-12T07:45:46.391Z,101251.00
2022-10-12T07:48:15.079Z,101252.00
2022-10-12T07:51:06.205Z,101249.00
2022-10-12T07:53:36.231Z,101251.00
2022-10-12T07:56:09.690Z,101257.00
2022-10-12T07:58:38.320Z,101256.00
2022-10-12T08:01:08.015Z,101246.00
2022-10-12T08:03:37.318Z,101259.00
2022-10-12T08:06:13.724Z,101257.00
2022-10-12T08:08:43.448Z,101260.00
2022-10-12T08:11:16.085Z,101246.00
2022-10-12T08:13:45.710Z,101257.00
2022-10-12T08:16:16.161Z,101250.00
2022-10-12T08:18:44.901Z,101248.00
2022-10-12T08:21:19.405Z,101254.00
2022-10-12T08:23:48.799Z,101250.00
2022-10-12T08:26:20.309Z,101250.00
2022-10-12T08:28:51.432Z,101252.00
2022-10-12T08:31:28.902Z,101259.00
2022-10-12T08:34:02.737Z,101246.00
2022-10-12T08:36:40.096Z,101248.00
2022-10-12T08:39:11.446Z,101247.00
2022-10-12T08:41:59.660Z,101243.00
2022-10-12T08:44:54.084Z,101240.00
2022-10-12T08:47:34.815Z,101233.00
2022-10-12T08:50:05.261Z,101230.00
2022-10-12T08:52:39.441Z,101223.00
2022-10-12T08:55:20.612Z,101230.00
2022-10-12T08:57:50.199Z,101230.00
2022-10-12T09:00:19.693Z,101228.00
2022-10-12T09:02:57.444Z,101232.00
2022-10-12T09:05:32.961Z,101239.00
2022-10-12T09:08:08.270Z,101224.00
2022-10-12T09:10:47.622Z,101229.00
2022-10-12T09:13:28.079Z,101224.00
2022-10-12T09:16:01.179Z,101226.00
2022-10-12T09:18:40.600Z,101223.00
2022-10-12T09:21:14.924Z,101229.00
2022-10-12T09:23:45.242Z,101226.00
2022-10-12T09:26:18.083Z,101226.00
2022-10-12T09:28:49.994Z,101224.00
2022-10-12T09:31:36.034Z,101224.00
2022-10-12T09:34:07.589Z,101226.00
2022-10-12T09:36:38.459Z,101216.00
2022-10-12T09:39:16.704Z,101218.00
2022-10-12T09:41:47.502Z,101213.00
2022-10-12T09:44:27.328Z,101209.00
2022-10-12T09:47:13.723Z,101223.00
2022-10-12T09:49:43.591Z,101214.00
2022-10-12T09:52:13.912Z,101211.00
2022-10-12T09:54:49.388Z,101209.00
2022-10-12T09:57:23.858Z,101198.00
2022-10-12T09:59:52.863Z,101209.00
2022-10-12T10:02:22.594Z,101203.00
2022-10-12T10:04:52.660Z,101212.00
2022-10-12T10:07:25.099Z,101213.00
2022-10-12T10:10:15.808Z,101195.00
2022-10-12T10:12:50.867Z,101199.00
2022-10-12T10:15:25.946Z,101195.00
2022-10-12T10:17:56.548Z,101199.00
2022-10-12T10:20:35.179Z,101189.00
2022-10-12T10:23:06.047Z,101190.00
2022-10-12T10:25:36.644Z,101189.00
2022-10-12T10:28:20.630Z,101185.00
2022-10-12T10:31:00.079Z,101193.00
2022-10-12T10:33:28.805Z,101182.00
2022-10-12T10:36:10.026Z,101171.00
2022-10-12T10:38:56.197Z,101191.00
2022-10-12T10:41:29.260Z,101177.00
2022-10-12T10:43:58.016Z,101176.00
2022-10-12T10:46:30.751Z,101180.00
2022-10-12T10:49:06.585Z,101174.00
2022-10-12T10:51:44.356Z,101178.00
2022-10-12T10:54:18.320Z,101183.00
2022-10-12T10:56:50.426Z,101182.00
2022-10-12T10:59:28.078Z,101169.00
2022-10-12T11:02:01.050Z,101175.00
2022-10-12T11:04:33.965Z,101169.00
2022-10-12T11:07:06.269Z,101164.00
2022-10-12T11:09:42.261Z,101172.00
2022-10-12T11:12:17.334Z,101161.00
2022-10-12T11:14:48.029Z,101169.00
2022-10-12T11:17:22.945Z,101164.00
2022-10-12T11:19:54.252Z,101163.00
2022-10-12T11:22:28.573Z,101164.00
2022-10-12T11:25:04.172Z,101156.00
2022-10-12T11:27:39.621Z,101155.00
2022-10-12T11:30:15.119Z,101144.00
2022-10-12T11:32:46.444Z,101141.00
2022-10-12T11:35:18.060Z,101148.00
2022-10-12T11:37:51.296Z,101141.00
2022-10-12T11:40:47.787Z,101141.00
2022-10-12T11:43:25.339Z,101129.00
2022-10-12T11:45:57.160Z,101139.00
2022-10-12T11:48:30.628Z,101124.00
2022-10-12T11:51:04.026Z,101123.00
2022-10-12T11:53:42.203Z,101120.00
2022-10-12T11:56:19.418Z,101119.00
2022-10-12T11:59:01.527Z,101118.00
2022-10-12T12:01:46.648Z,101111.00
2022-10-12T12:04:42.221Z,101114.00
2022-10-12T12:07:40.443Z,101117.00
2022-10-12T12:10:42.507Z,101112.00
2022-10-12T12:13:21.775Z,101096.00
2022-10-12T12:16:24.328Z,101107.00
2022-10-12T12:19:30.250Z,101104.00
2022-10-12T12:22:24.973Z,101099.00
2022-10-12T12:24:57.362Z,101094.00
2022-10-12T12:27:36.185Z,101083.00
2022-10-12T12:30:21.780Z,101085.00
2022-10-12T12:32:54.881Z,101091.00
2022-10-12T12:35:31.293Z,101080.00
2022-10-12T12:38:20.423Z,101087.00
2022-10-12T12:41:10.407Z,101095.00
2022-10-12T12:43:56.198Z,101084.00
2022-10-12T12:46:41.119Z,101092.00
2022-10-12T12:49:30.051Z,101091.00
2022-10-12T12:51:59.881Z,101083.00
2022-10-12T12:54:29.641Z,101084.00
2022-10-12T12:57:44.982Z,101080.00
2022-10-12T13:00:19.245Z,101081.00
2022-10-12T13:03:21.464Z,101080.00
2022-10-12T13:06:23.819Z,101080.00
2022-10-12T13:09:16.593Z,101073.00
2022-10-12T13:12:03.547Z,101070.00
2022-10-12T13:15:03.345Z,101067.00
2022-10-12T13:17:48.489Z,101067.00
2022-10-12T13:20:21.297Z,101070.00
2022-10-12T13:23:01.694Z,101052.00
2022-10-12T13:25:44.931Z,101058.00
2022-10-12T13:28:34.497Z,101045.00
2022-10-12T13:31:07.417Z,101050.00
2022-10-12T13:33:39.173Z,101051.00
2022-10-12T13:36:10.291Z,101048.00
2022-10-12T13:38:39.267Z,101040.00
2022-10-12T13:41:12.282Z,101045.00
2022-10-12T13:43:46.913Z,101043.00
2022-10-12T13:46:35.868Z,101040.00
2022-10-12T13:49:12.772Z,101031.00
2022-10-12T13:51:41.464Z,101029.00
2022-10-12T13:54:20.924Z,101025.00
2022-10-12T13:56:54.404Z,101019.00
2022-10-12T13:59:25.666Z,101016.00
2022-10-12T14:02:00.976Z,101028.00
2022-10-12T14:04:31.159Z,101016.00
2022-10-12T14:07:02.726Z,101019.00
2022-10-12T14:09:40.397Z,101021.00
2022-10-12T14:12:11.460Z,101009.00
2022-10-12T14:14:41.874Z,101008.00
2022-10-12T14:17:16.038Z,101013.00
2022-10-12T14:19:47.895Z,101010.00
2022-10-12T14:22:24.646Z,101006.00
2022-10-12T14:25:07.089Z,101004.00
2022-10-12T14:27:40.618Z,101009.00
2022-10-12T14:30:19.588Z,100999.00
2022-10-12T14:32:49.155Z,101005.00
2022-10-12T14:35:29.062Z,101000.00
2022-10-12T14:37:58.105Z,100999.00
2022-10-12T14:40:34.307Z,100985.00
2022-10-12T14:43:09.468Z,100991.00
2022-10-12T14:45:38.429Z,100987.00
2022-10-12T14:48:12.901Z,100996.00
2022-10-12T14:50:41.603Z,100995.00
2022-10-12T14:53:13.569Z,100994.00
2022-10-12T14:55:42.833Z,100992.00
2022-10-12T14:58:16.913Z,100983.00
2022-10-12T15:00:46.080Z,100981.00
2022-10-12T15:03:14.830Z,100978.00
2022-10-12T15:05:43.369Z,100979.00
2022-10-12T15:08:11.902Z,100983.00
2022-10-12T15:10:40.437Z,100982.00
2022-10-12T15:13:10.356Z,100977.00
2022-10-12T15:15:42.633Z,100969.00
2022-10-12T15:18:11.517Z,100978.00
2022-10-12T15:20:43.157Z,100973.00
2022-10-12T15:23:14.491Z,100967.00
2022-10-12T15:25:50.598Z,100965.00
2022-10-12T15:28:19.553Z,100969.00
2022-10-12T15:31:16.093Z,100970.00
2022-10-12T15:33:38.737Z,100971.00
2022-10-12T15:36:07.764Z,100970.00
2022-10-12T15:38:36.743Z,100971.00
2022-10-12T15:41:05.870Z,100959.00
2022-10-12T15:43:36.834Z,100961.00
2022-10-12T15:46:11.902Z,100962.00
2022-10-12T15:48:40.858Z,100960.00
2022-10-12T15:51:14.417Z,100958.00
2022-10-12T15:53:44.929Z,100967.00
2022-10-12T15:56:15.681Z,100958.00
2022-10-12T15:58:44.423Z,100956.00
2022-10-12T16:01:15.383Z,100962.00
2022-10-12T16:03:44.408Z,100965.00
2022-10-12T16:06:13.111Z,100955.00
2022-10-12T16:08:42.186Z,100955.00
2022-10-12T16:11:12.987Z,100958.00
2022-10-12T16:13:47.972Z,100956.00
2022-10-12T16:16:21.237Z,100958.00
2022-10-12T16:18:49.853Z,100957.00
2022-10-12T16:21:18.436Z,100956.00
2022-10-12T16:23:47.134Z,100957.00
2022-10-12T16:26:19.162Z,100962.00
2022-10-12T16:28:58.689Z,100955.00
2022-10-12T16:31:28.925Z,100954.00
2022-10-12T16:33:58.589Z,100950.00
2022-10-12T16:36:27.252Z,100955.00
2022-10-12T16:38:56.636Z,100957.00
2022-10-12T16:41:59.969Z,100951.00
2022-10-12T16:44:59.030Z,100952.00
2022-10-12T16:47:31.887Z,100944.00
2022-10-12T16:50:07.155Z,100956.00
2022-10-12T16:52:36.252Z,100950.00
2022-10-12T16:55:06.284Z,100949.00
2022-10-12T16:57:56.858Z,100954.00
2022-10-12T17:00:36.048Z,100955.00
2022-10-12T17:03:35.568Z,100957.00
2022-10-12T17:06:05.582Z,100957.00
2022-10-12T17:08:35.763Z,100957.00
2022-10-12T17:11:08.546Z,100956.00
2022-10-12T17:14:12.944Z,100954.00
2022-10-12T17:17:00.521Z,100956.00
2022-10-12T17:19:46.763Z,100960.00
2022-10-12T17:22:16.906Z,100958.00
2022-10-12T17:24:46.007Z,100953.00
2022-10-12T17:27:16.473Z,100954.00
2022-10-12T17:29:45.292Z,100960.00
2022-10-12T17:32:14.391Z,100964.00
2022-10-12T17:34:45.735Z,100956.00
2022-10-12T17:37:15.047Z,100954.00
2022-10-12T17:39:45.637Z,100959.00
2022-10-12T17:42:15.151Z,100957.00
2022-10-12T17:44:44.243Z,100950.00
2022-10-12T17:47:12.901Z,100952.00
2022-10-12T17:49:41.487Z,100951.00
2022-10-12T17:52:11.588Z,100945.00
2022-10-12T17:54:40.301Z,100945.00
2022-10-12T17:57:08.969Z,100942.00
2022-10-12T17:59:37.630Z,100949.00
2022-10-12T18:02:09.485Z,100954.00
2022-10-12T18:04:38.567Z,100948.00
2022-10-12T18:07:07.347Z,100945.00
2022-10-12T18:09:37.502Z,100947.00
2022-10-12T18:12:06.501Z,100948.00
2022-10-12T18:14:35.268Z,100944.00
2022-10-12T18:17:03.832Z,100944.00
2022-10-12T18:19:32.647Z,100944.00
2022-10-12T18:22:01.418Z,100941.00
2022-10-12T18:24:30.076Z,100948.00
2022-10-12T18:27:00.339Z,100949.00
2022-10-12T18:29:29.096Z,100948.00
2022-10-12T18:31:57.948Z,100945.00
2022-10-12T18:34:26.719Z,100943.00
2022-10-12T18:36:55.355Z,100945.00
2022-10-12T18:39:26.400Z,100946.00
2022-10-12T18:41:55.145Z,100951.00
2022-10-12T18:44:26.029Z,100948.00
2022-10-12T18:46:56.608Z,100950.00
2022-10-12T18:52:17.425Z,100939.00
2022-10-12T18:54:47.596Z,100944.00
2022-10-12T18:57:16.162Z,100947.00
2022-10-12T18:59:46.416Z,100948.00
2022-10-12T19:02:17.337Z,100949.00
2022-10-12T19:04:46.284Z,100949.00
2022-10-12T19:07:15.245Z,100946.00
2022-10-12T19:09:43.932Z,100950.00
2022-10-12T19:12:12.997Z,100943.00
2022-10-12T19:14:42.409Z,100946.00
2022-10-12T19:17:12.803Z,100941.00
2022-10-12T19:19:41.770Z,100931.00
2022-10-12T19:22:10.708Z,100936.00
2022-10-12T19:24:39.269Z,100930.00
2022-10-12T19:27:07.975Z,100942.00
2022-10-12T19:29:36.846Z,100933.00
2022-10-12T19:32:06.603Z,100930.00
2022-10-12T19:34:36.657Z,100934.00
2022-10-12T19:37:05.415Z,100928.00
2022-10-12T19:39:33.989Z,100923.00
2022-10-12T19:42:02.847Z,100922.00
2022-10-12T19:44:31.602Z,100916.00
2022-10-12T19:47:01.205Z,100915.00
2022-10-12T19:49:34.386Z,100914.00
2022-10-12T19:52:06.597Z,100903.00
2022-10-12T19:54:36.317Z,100907.00
2022-10-12T19:57:05.088Z,100906.00
2022-10-12T19:59:34.022Z,100910.00
2022-10-12T20:02:02.721Z,100904.00
2022-10-12T20:04:31.356Z,100911.00
2022-10-12T20:07:00.005Z,100910.00
2022-10-12T20:09:30.826Z,100920.00
2022-10-12T20:11:59.649Z,100919.00
2022-10-12T20:14:29.951Z,100923.00
2022-10-12T20:16:58.728Z,100917.00
2022-10-12T20:19:27.448Z,100912.00
2022-10-12T20:21:56.298Z,100915.00
2022-10-12T20:24:27.112Z,100921.00
2022-10-12T20:26:57.279Z,100913.00
2022-10-12T20:29:25.928Z,100907.00
2022-10-12T20:31:54.543Z,100915.00
2022-10-12T20:34:23.722Z,100922.00
2022-10-12T20:36:52.474Z,100922.00
2022-10-12T20:39:21.185Z,100918.00
2022-10-12T20:41:49.775Z,100914.00
2022-10-12T20:44:24.704Z,100910.00
2022-10-12T20:49:41.662Z,100912.00
2022-10-12T20:52:10.227Z,100907.00
2022-10-12T20:54:39.089Z,100906.00
2022-10-12T20:57:07.631Z,100900.00
2022-10-12T20:59:38.373Z,100904.00
2022-10-12T21:02:06.812Z,100900.00
2022-10-12T21:04:38.438Z,100900.00
2022-10-12T21:07:07.114Z,100895.00
2022-10-12T21:09:35.703Z,100895.00
2022-10-12T21:12:04.195Z,100895.00
2022-10-12T21:14:33.000Z,100891.00
2022-10-12T21:17:02.949Z,100892.00
2022-10-12T21:19:31.561Z,100891.00
2022-10-12T21:22:00.078Z,100894.00
2022-10-12T21:24:28.553Z,100901.00
2022-10-12T21:26:57.201Z,100891.00
2022-10-12T21:29:26.261Z,100887.00
2022-10-12T21:31:54.887Z,100892.00
2022-10-12T21:34:24.837Z,100892.00
2022-10-12T21:36:53.606Z,100887.00
2022-10-12T21:39:22.060Z,100891.00
2022-10-12T21:41:50.535Z,100887.00
2022-10-12T21:44:19.360Z,100874.00
2022-10-12T21:46:48.658Z,100887.00
2022-10-12T21:49:17.112Z,100881.00
2022-10-12T21:51:46.943Z,100882.00
2022-10-12T21:54:15.368Z,100886.00
2022-10-12T21:56:43.830Z,100883.00
2022-10-12T21:59:12.315Z,100882.00
2022-10-12T22:01:41.795Z,100882.00
2022-10-12T22:04:14.348Z,100878.00
2022-10-12T22:06:43.448Z,100876.00
2022-10-12T22:09:16.793Z,100874.00
2022-10-12T22:11:45.753Z,100873.00
2022-10-12T22:14:16.234Z,100875.00
2022-10-12T22:16:45.231Z,100883.00
2022-10-12T22:19:18.962Z,100881.00
2022-10-12T22:21:48.144Z,100878.00
2022-10-12T22:24:18.015Z,100872.00
2022-10-12T22:26:46.512Z,100881.00
2022-10-12T22:29:15.017Z,100877.00
2022-10-12T22:31:44.558Z,100878.00
2022-10-12T22:34:13.039Z,100884.00
2022-10-12T22:36:43.537Z,100881.00
2022-10-12T22:39:11.981Z,100878.00
2022-10-12T22:41:41.833Z,100872.00
2022-10-12T22:44:10.427Z,100871.00
2022-10-12T22:46:38.914Z,100873.00
2022-10-12T22:49:07.377Z,100873.00
2022-10-12T22:51:39.036Z,100871.00
2022-10-12T22:54:08.409Z,100870.00
2022-10-12T22:56:37.205Z,100872.00
2022-10-12T22:59:07.578Z,100868.00
2022-10-12T23:01:36.716Z,100869.00
2022-10-12T23:04:05.299Z,100878.00
2022-10-12T23:06:33.784Z,100865.00
2022-10-12T23:09:02.274Z,100873.00
2022-10-12T23:11:31.478Z,100871.00
2022-10-12T23:14:00.397Z,100867.00
2022-10-12T23:16:32.581Z,100865.00
2022-10-12T23:19:02.429Z,100866.00
2022-10-12T23:21:32.597Z,100859.00
2022-10-12T23:24:02.209Z,100861.00
2022-10-12T23:26:31.445Z,100853.00
2022-10-12T23:29:00.272Z,100854.00
2022-10-12T23:31:30.959Z,100858.00
2022-10-12T23:34:00.220Z,100850.00
2022-10-12T23:36:29.108Z,100855.00
2022-10-12T23:39:00.023Z,100839.00
2022-10-12T23:41:28.556Z,100849.00
2022-10-12T23:43:57.010Z,100853.00
2022-10-12T23:46:25.535Z,100851.00
2022-10-12T23:48:55.264Z,100854.00
2022-10-12T23:51:23.781Z,100848.00
2022-10-12T23:53:52.273Z,100849.00
2022-10-12T23:56:20.690Z,100854.00
2022-10-12T23:58:49.103Z,100854.00
